Time;durP1;ratioP1;P1;durP2;ratioP2;P2;SDS_P1;SDS_P2;PMS_P1;PMS_P2;Temp;Humidity;BMP_temperature;BMP_pressure;BME280_temperature;BME280_humidity;BME280_pressure;Samples;Min_cycle;Max_cycle;Signal;HPM_P1;HPM_P2
2022/01/16 00:01:07;;;;;;;;;52.00;38.67;;;;;3.55;74.08;102409.66;5058440;28;58897;-71
2022/01/16 00:06:17;;;;;;;;;59.50;38.00;;;;;3.58;74.33;102423.59;5060686;28;45579;-70
2022/01/16 00:08:43;;;;;;;;;47.00;41.00;;;;;3.59;73.81;102414.06;5054741;28;46094;-70
2022/01/16 00:11:09;;;;;;;;;57.50;44.50;;;;;3.59;73.78;102403.66;5059076;28;45446;-70
2022/01/16 00:13:35;;;;;;;;;51.25;37.75;;;;;3.58;73.67;102400.19;5060999;28;45474;-70
2022/01/16 00:16:00;;;;;;;;;57.25;42.00;;;;;3.59;73.58;102403.66;5052233;28;45406;-70
2022/01/16 00:18:29;;;;;;;;;45.00;34.25;;;;;3.58;73.90;102414.91;5057164;28;48427;-70
2022/01/16 00:20:54;;;;;;;;;60.00;40.00;;;;;3.59;74.04;102419.25;5062935;28;45774;-71
2022/01/16 00:23:28;;;;;;;;;65.00;37.75;;;;;3.51;73.90;102389.72;5055415;28;45506;-70
2022/01/16 00:25:56;;;;;;;;;49.75;40.00;;;;;3.60;73.73;102405.41;5071578;28;45386;-71
2022/01/16 00:28:23;;;;;;;;;51.00;35.25;;;;;3.61;73.96;102420.16;5037789;28;48571;-70
2022/01/16 00:30:49;;;;;;;;;45.50;39.75;;;;;3.61;73.77;102433.16;5066252;28;45714;-70
2022/01/16 00:33:16;;;;;;;;;55.50;41.75;;;;;3.60;73.75;102442.69;5060585;28;45613;-70
2022/01/16 00:35:42;;;;;;;;;47.00;34.75;;;;;3.59;73.72;102440.91;5054503;28;45306;-71
2022/01/16 00:38:07;;;;;;;;;49.00;42.25;;;;;3.61;73.49;102447.03;5058279;28;46097;-70
2022/01/16 00:40:33;;;;;;;;;42.50;34.75;;;;;3.59;73.37;102422.72;5059156;28;45837;-70
2022/01/16 00:42:58;;;;;;;;;56.50;41.25;;;;;3.57;73.26;102403.66;5058817;27;45474;-71
2022/01/16 00:45:25;;;;;;;;;45.00;35.75;;;;;3.60;73.68;102421.00;5054507;28;45661;-70
2022/01/16 00:47:50;;;;;;;;;50.00;41.75;;;;;3.60;73.56;102415.78;5058859;28;46884;-71
2022/01/16 00:50:16;;;;;;;;;54.75;41.25;;;;;3.57;73.38;102420.97;5040606;28;45474;-71
2022/01/16 00:52:41;;;;;;;;;50.75;40.50;;;;;3.58;73.56;102446.97;5065158;28;45467;-70
2022/01/16 00:55:07;;;;;;;;;48.25;38.50;;;;;3.59;73.26;102451.31;5062230;28;45515;-70
2022/01/16 00:57:33;;;;;;;;;45.25;37.50;;;;;3.56;73.43;102443.50;5053353;28;45460;-71
2022/01/16 00:59:58;;;;;;;;;54.75;41.25;;;;;3.55;73.46;102420.06;5058576;28;45657;-70
2022/01/16 01:02:24;;;;;;;;;41.00;34.75;;;;;3.60;73.42;102485.97;5068374;28;45344;-71
2022/01/16 01:04:50;;;;;;;;;45.00;34.00;;;;;3.61;73.42;102466.97;5058760;28;45366;-70
2022/01/16 01:07:15;;;;;;;;;50.50;42.75;;;;;3.60;73.27;102492.09;5053766;28;45529;-70
2022/01/16 01:09:41;;;;;;;;;50.75;39.75;;;;;3.60;73.41;102473.88;5053562;28;45432;-71
2022/01/16 01:12:09;;;;;;;;;44.00;37.50;;;;;3.61;73.07;102508.56;5056482;28;45577;-71
2022/01/16 01:14:42;;;;;;;;;44.75;40.75;;;;;3.61;73.40;102487.75;5056886;28;45429;-71
2022/01/16 01:17:12;;;;;;;;;58.00;41.50;;;;;3.62;73.04;102481.69;5057668;28;46464;-71
2022/01/16 01:19:38;;;;;;;;;45.00;41.75;;;;;3.58;73.42;102487.69;5053784;28;45293;-70
2022/01/16 01:22:05;;;;;;;;;52.25;40.25;;;;;3.60;73.01;102452.19;5059842;28;45530;-70
2022/01/16 01:24:33;;;;;;;;;45.25;35.50;;;;;3.59;73.55;102411.44;5055422;28;45608;-71
2022/01/16 01:27:12;;;;;;;;;48.00;34.75;;;;;3.59;73.46;102414.06;5054523;28;46264;-71
2022/01/16 01:29:40;;;;;;;;;48.00;37.00;;;;;3.57;72.83;102397.56;5054388;28;45521;-70
2022/01/16 01:32:06;;;;;;;;;47.50;36.50;;;;;3.57;72.83;102381.97;5054976;28;45356;-70
2022/01/16 01:34:31;;;;;;;;;36.25;17.00;;;;;3.56;73.25;102388.03;5054777;28;45503;-70
2022/01/16 01:36:56;;;;;;;;;46.75;34.75;;;;;3.49;72.80;102418.25;5057881;28;45344;-70
2022/01/16 01:39:23;;;;;;;;;52.67;38.33;;;;;3.42;72.62;102413.84;5051203;28;45430;-70
2022/01/16 01:41:54;;;;;;;;;46.50;41.25;;;;;3.46;73.19;102439.03;5051513;28;45309;-70
2022/01/16 01:52:52;;;;;;;;;45.00;37.75;;;;;3.32;72.74;102493.38;4999947;28;45413;-70
2022/01/16 01:55:18;;;;;;;;;61.50;43.00;;;;;3.28;72.89;102486.41;5001237;28;45334;-70
2022/01/16 01:57:44;;;;;;;;;52.00;41.75;;;;;3.31;72.91;102489.06;4997106;28;46157;-70
2022/01/16 02:00:10;;;;;;;;;52.75;42.75;;;;;3.30;73.40;102492.50;4997036;28;45890;-70
2022/01/16 02:02:51;;;;;;;;;40.50;33.25;;;;;3.30;73.38;102497.69;5002691;28;45542;-70
2022/01/16 02:05:17;;;;;;;;;41.75;33.50;;;;;3.29;73.26;102518.44;4995216;28;45646;-70
2022/01/16 02:07:42;;;;;;;;;51.25;38.50;;;;;3.29;72.93;102531.44;5002685;28;46122;-70
2022/01/16 02:10:08;;;;;;;;;43.50;34.00;;;;;3.29;73.03;102536.63;4996796;28;49223;-70
2022/01/16 02:12:36;;;;;;;;;42.25;35.25;;;;;3.30;73.60;102546.22;4997143;28;47994;-71
2022/01/16 02:15:27;;;;;;;;;47.50;38.25;;;;;3.31;73.52;102546.22;4996169;28;45604;-70
2022/01/16 02:29:03;;;;;;;;;45.50;35.00;;;;;3.20;72.76;102560.75;5053979;28;45570;-70
2022/01/16 02:31:28;;;;;;;;;52.50;34.25;;;;;3.14;72.89;102560.66;5051926;28;45350;-70
2022/01/16 02:36:45;;;;;;;;;56.50;35.00;;;;;3.09;73.31;102534.59;5054046;28;45592;-70
2022/01/16 02:39:13;;;;;;;;;30.75;21.25;;;;;3.04;73.12;102533.66;5052740;28;45359;-70
2022/01/16 02:41:40;;;;;;;;;45.50;37.75;;;;;3.02;73.27;102532.75;5055461;28;45875;-70
2022/01/16 02:44:23;;;;;;;;;51.75;38.75;;;;;3.02;72.95;102524.06;5053720;28;45740;-70
2022/01/16 02:46:49;;;;;;;;;51.75;43.00;;;;;3.00;73.44;102524.06;5053950;28;45549;-70
2022/01/16 02:49:26;;;;;;;;;53.50;36.75;;;;;3.00;73.35;102505.00;5058007;28;46063;-70
2022/01/16 02:51:55;;;;;;;;;49.00;38.00;;;;;2.98;73.21;102492.00;5059728;28;45602;-70
2022/01/16 02:54:21;;;;;;;;;47.75;39.75;;;;;3.02;73.64;102508.50;5061050;28;45506;-70
2022/01/16 02:56:48;;;;;;;;;52.00;38.00;;;;;3.01;73.55;102501.56;5052132;28;45359;-71
2022/01/16 02:59:14;;;;;;;;;50.50;37.25;;;;;3.02;73.53;102498.97;5053011;28;46168;-70
2022/01/16 03:01:39;;;;;;;;;57.50;38.50;;;;;2.98;73.38;102486.81;5059794;28;45634;-71
2022/01/16 03:04:05;;;;;;;;;47.00;40.75;;;;;3.05;73.29;102514.63;5051373;28;45375;-70
2022/01/16 03:06:31;;;;;;;;;42.00;32.25;;;;;3.02;73.59;102498.97;5061437;28;45434;-71
2022/01/16 03:08:56;;;;;;;;;47.75;37.25;;;;;3.07;73.74;102509.44;5055656;28;45473;-70
2022/01/16 03:11:34;;;;;;;;;51.25;40.00;;;;;3.05;73.40;102488.66;5058594;28;45376;-71
2022/01/16 03:14:02;;;;;;;;;49.50;38.75;;;;;3.08;73.71;102503.38;5065148;28;45546;-70
2022/01/16 03:16:27;;;;;;;;;58.25;39.50;;;;;3.07;73.11;102496.44;5054449;28;45700;-70
2022/01/16 03:21:55;;;;;;;;;47.50;37.00;;;;;2.85;73.29;102470.13;5054816;28;45932;-70
2022/01/16 03:24:26;;;;;;;;;46.50;41.00;;;;;2.84;73.84;102478.78;5052761;28;45529;-71
2022/01/16 03:27:16;;;;;;;;;47.75;37.75;;;;;2.82;74.19;102477.91;5051903;28;45435;-70
2022/01/16 03:29:44;;;;;;;;;47.75;39.75;;;;;2.77;73.48;102476.94;5045399;28;45450;-70
2022/01/16 03:32:14;;;;;;;;;44.00;36.25;;;;;2.69;73.43;102477.66;5058110;28;45785;-70
2022/01/16 03:34:40;;;;;;;;;50.00;39.75;;;;;2.60;73.92;102474.03;5057623;28;45489;-71
2022/01/16 03:37:07;;;;;;;;;50.00;39.75;;;;;2.55;74.07;102474.78;5056514;28;45477;-70
2022/01/16 03:39:33;;;;;;;;;51.00;42.25;;;;;2.47;74.56;102479.84;5055086;28;45905;-71
2022/01/16 03:42:00;;;;;;;;;62.50;39.00;;;;;2.35;74.61;102477.91;5059935;28;45887;-70
2022/01/16 03:44:26;;;;;;;;;47.25;35.25;;;;;2.47;75.50;102504.94;5053493;28;45389;-70
2022/01/16 03:46:51;;;;;;;;;54.00;36.25;;;;;2.45;75.25;102499.69;5048417;28;45559;-71
2022/01/16 03:49:20;;;;;;;;;49.50;38.25;;;;;2.46;74.92;102498.00;5054887;28;53683;-70
2022/01/16 03:51:47;;;;;;;;;55.75;44.00;;;;;2.43;75.08;102506.59;5054781;28;45815;-70
2022/01/16 03:54:18;;;;;;;;;46.50;34.50;;;;;2.45;75.62;102517.00;5054884;28;45530;-70
2022/01/16 03:56:45;;;;;;;;;46.25;36.75;;;;;2.45;75.67;102506.59;5054901;28;46784;-70
2022/01/16 03:59:11;;;;;;;;;56.75;35.50;;;;;2.41;75.64;102494.44;5057447;28;46094;-70
2022/01/16 04:01:37;;;;;;;;;46.00;34.50;;;;;2.37;75.58;102490.91;5057457;28;45360;-70
2022/01/16 04:04:03;;;;;;;;;47.00;32.00;;;;;2.32;75.50;102487.34;5047290;28;45560;-70
2022/01/16 04:06:28;;;;;;;;;49.50;38.50;;;;;2.32;75.67;102498.59;5053476;28;45494;-71
2022/01/16 04:08:55;;;;;;;;;60.75;42.25;;;;;2.37;75.84;102506.47;5056770;28;45457;-70
2022/01/16 04:11:22;;;;;;;;;50.25;39.25;;;;;2.34;75.90;102489.13;5059100;28;45466;-70
2022/01/16 04:13:53;;;;;;;;;47.50;38.75;;;;;2.38;75.73;102517.72;5058316;28;45641;-70
2022/01/16 04:16:21;;;;;;;;;51.00;36.00;;;;;2.37;76.10;102503.00;5054476;28;45312;-71
2022/01/16 04:18:51;;;;;;;;;48.50;33.75;;;;;2.39;75.67;102515.16;5054227;28;46093;-71
2022/01/16 04:21:22;;;;;;;;;54.00;40.00;;;;;2.40;76.02;102516.91;5055365;28;45536;-70
2022/01/16 04:23:48;;;;;;;;;47.50;34.50;;;;;2.41;75.91;102523.00;5056971;28;45620;-70
2022/01/16 04:26:16;;;;;;;;;42.75;32.25;;;;;2.38;76.20;102526.38;5071073;28;45550;-70
2022/01/16 04:28:41;;;;;;;;;51.00;42.75;;;;;2.37;75.82;102531.56;5061977;28;46383;-70
2022/01/16 04:31:07;;;;;;;;;49.25;32.00;;;;;2.37;75.74;102526.38;5061328;28;45388;-71
2022/01/16 04:33:33;;;;;;;;;44.25;35.75;;;;;2.33;76.35;102526.28;5057855;28;45274;-71
2022/01/16 04:35:58;;;;;;;;;54.50;38.00;;;;;2.36;75.90;102530.69;5061719;28;45876;-71
2022/01/16 04:38:23;;;;;;;;;46.00;39.25;;;;;2.36;76.18;102546.25;5055577;28;45540;-70
2022/01/16 04:43:48;;;;;;;;;42.75;34.75;;;;;2.35;76.18;102558.34;5057412;28;45468;-71
2022/01/16 04:46:26;;;;;;;;;36.75;32.00;;;;;2.37;76.33;102558.38;5055728;28;45422;-71
2022/01/16 04:48:53;;;;;;;;;47.25;37.25;;;;;2.36;76.32;102551.44;5054068;28;45456;-70
2022/01/16 04:51:19;;;;;;;;;47.00;43.25;;;;;2.43;76.23;102568.00;5063342;28;45494;-70
2022/01/16 04:53:45;;;;;;;;;46.25;42.50;;;;;2.42;76.26;102559.34;5063846;28;45751;-70
2022/01/16 04:56:11;;;;;;;;;59.00;42.00;;;;;2.47;76.59;102544.72;5054755;28;45442;-70
2022/01/16 04:58:37;;;;;;;;;42.75;32.50;;;;;2.45;76.50;102546.41;5057630;28;46826;-71
2022/01/16 05:01:04;;;;;;;;;43.00;36.25;;;;;2.45;76.44;102556.78;5059391;28;45929;-70
2022/01/16 05:03:31;;;;;;;;;53.00;36.00;;;;;2.43;76.22;102553.28;5059085;28;45298;-70
2022/01/16 05:05:56;;;;;;;;;49.50;33.75;;;;;2.46;76.11;102549.91;5060575;28;45325;-70
2022/01/16 05:08:23;;;;;;;;;50.25;42.50;;;;;2.47;76.43;102546.47;5055835;28;46512;-70
2022/01/16 05:10:53;;;;;;;;;55.50;40.25;;;;;2.42;76.18;102555.88;5056888;28;46466;-70
2022/01/16 05:18:36;;;;;;;;;54.25;33.75;;;;;2.42;77.05;102569.72;5050575;28;45837;-70
2022/01/16 05:21:01;;;;;;;;;61.50;44.75;;;;;2.50;77.21;102578.50;5052286;28;45418;-70
2022/01/16 05:23:27;;;;;;;;;52.75;39.00;;;;;2.53;77.28;102594.16;5055339;28;45392;-71
2022/01/16 05:25:53;;;;;;;;;49.25;38.50;;;;;2.53;76.87;102591.56;5056541;28;45460;-70
2022/01/16 05:28:18;;;;;;;;;64.00;46.00;;;;;2.46;76.90;102575.84;5056990;28;45493;-70
2022/01/16 05:30:44;;;;;;;;;54.75;41.75;;;;;2.48;77.08;102589.72;5047671;28;45446;-70
2022/01/16 05:33:09;;;;;;;;;42.50;26.00;;;;;2.48;77.02;102597.50;5054817;28;45568;-70
2022/01/16 05:35:35;;;;;;;;;55.75;41.00;;;;;2.50;77.54;102611.38;5058145;28;45311;-70
2022/01/16 05:38:01;;;;;;;;;51.50;42.25;;;;;2.30;76.90;102575.53;5059575;28;46374;-71
2022/01/16 05:40:26;;;;;;;;;51.00;40.75;;;;;2.50;77.39;102608.78;5054316;28;45403;-70
2022/01/16 05:42:51;;;;;;;;;54.75;38.25;;;;;2.52;77.78;102609.72;5056294;28;45390;-70
2022/01/16 05:45:17;;;;;;;;;52.67;38.67;;;;;2.54;77.60;102611.47;5064907;28;55375;-70
2022/01/16 05:47:42;;;;;;;;;55.25;34.50;;;;;2.55;77.91;102612.34;5062637;27;45974;-70
2022/01/16 05:50:08;;;;;;;;;54.67;39.33;;;;;2.56;77.90;102616.72;5056447;28;47123;-70
2022/01/16 05:52:33;;;;;;;;;63.00;43.00;;;;;2.51;77.89;102613.16;5058666;28;45782;-70
2022/01/16 05:54:58;;;;;;;;;44.00;35.00;;;;;2.45;77.53;102610.41;5054799;28;45486;-70
2022/01/16 05:57:24;;;;;;;;;44.00;31.67;;;;;2.40;77.70;102601.66;5060795;28;54456;-70
2022/01/16 05:59:49;;;;;;;;;55.00;39.00;;;;;2.39;77.92;102595.59;5059907;28;45327;-70
2022/01/16 06:02:15;;;;;;;;;46.00;37.75;;;;;2.40;77.94;102601.66;5062883;28;45493;-71
2022/01/16 06:04:40;;;;;;;;;43.75;36.75;;;;;2.41;78.32;102629.38;5056055;28;45543;-70
2022/01/16 06:07:06;;;;;;;;;46.25;40.50;;;;;2.45;78.43;102632.03;5059180;28;47780;-70
2022/01/16 06:09:32;;;;;;;;;53.50;41.75;;;;;2.41;78.53;102622.47;5057092;28;45413;-70
2022/01/16 06:11:57;;;;;;;;;53.50;40.50;;;;;2.50;78.74;102635.59;5054237;28;45567;-70
2022/01/16 06:14:23;;;;;;;;;45.75;34.75;;;;;2.50;78.59;102637.31;5053125;28;46863;-70
2022/01/16 06:16:50;;;;;;;;;52.25;38.00;;;;;2.51;78.77;102634.78;5059330;28;45947;-70
2022/01/16 06:19:15;;;;;;;;;51.50;43.25;;;;;2.47;78.38;102626.91;5056026;28;45407;-70
2022/01/16 06:21:41;;;;;;;;;66.33;42.00;;;;;2.43;78.55;102622.47;5058841;28;45507;-71
2022/01/16 06:24:06;;;;;;;;;51.67;34.67;;;;;2.45;79.03;102620.78;5054167;28;45312;-70
2022/01/16 06:26:31;;;;;;;;;49.25;36.25;;;;;2.45;79.28;102633.75;5062166;28;45376;-70
2022/01/16 06:28:58;;;;;;;;;43.00;33.25;;;;;2.39;79.34;102638.81;5059753;28;45284;-70
2022/01/16 06:31:23;;;;;;;;;49.50;35.00;;;;;2.46;79.54;102645.91;5056724;28;45423;-70
2022/01/16 06:33:50;;;;;;;;;51.00;39.50;;;;;2.51;78.98;102649.50;5056787;28;45538;-70
2022/01/16 06:36:15;;;;;;;;;47.25;37.50;;;;;2.55;79.23;102643.50;5061004;28;45513;-70
2022/01/16 06:38:41;;;;;;;;;60.25;39.25;;;;;2.54;79.23;102644.34;5048632;28;45476;-70
2022/01/16 06:41:06;;;;;;;;;54.25;34.50;;;;;2.53;79.29;102650.38;5053647;28;45395;-70
2022/01/16 06:43:33;;;;;;;;;38.75;27.75;;;;;2.50;79.53;102648.59;5063705;28;45459;-70
2022/01/16 06:45:58;;;;;;;;;42.50;34.00;;;;;2.52;79.53;102648.63;5051279;28;46444;-70
2022/01/16 06:48:24;;;;;;;;;46.50;35.75;;;;;2.52;79.58;102654.69;5055034;28;45526;-70
2022/01/16 06:50:49;;;;;;;;;60.75;38.50;;;;;2.53;79.64;102664.22;5062203;28;45603;-70
2022/01/16 06:53:14;;;;;;;;;39.33;32.67;;;;;2.52;80.07;102666.81;5061081;28;51277;-70
2022/01/16 06:55:39;;;;;;;;;55.00;37.67;;;;;2.51;79.75;102675.44;5053406;28;53013;-70
2022/01/16 06:58:05;;;;;;;;;45.33;37.33;;;;;2.50;80.18;102689.22;5051487;28;49711;-70
2022/01/16 07:00:30;;;;;;;;;50.00;39.75;;;;;2.49;79.64;102687.47;5051806;28;45328;-70
2022/01/16 07:02:55;;;;;;;;;55.00;41.00;;;;;2.54;80.20;102693.66;5063414;28;45420;-70
2022/01/16 07:05:21;;;;;;;;;33.00;23.67;;;;;2.51;80.20;102685.81;5052846;28;61434;-70
2022/01/16 07:07:46;;;;;;;;;35.50;31.75;;;;;2.50;80.39;102691.81;5057028;28;45371;-70
2022/01/16 07:10:11;;;;;;;;;51.67;31.67;;;;;2.50;80.36;102694.41;5055120;28;45388;-70
2022/01/16 07:12:37;;;;;;;;;35.75;28.25;;;;;2.49;80.24;102697.88;5053976;28;45509;-70
2022/01/16 07:15:03;;;;;;;;;36.50;27.50;;;;;2.43;80.69;102696.00;5061130;28;46110;-70
2022/01/16 07:17:28;;;;;;;;;32.50;23.00;;;;;2.39;81.05;102690.72;5055326;28;50055;-70
2022/01/16 07:19:53;;;;;;;;;41.67;32.67;;;;;2.37;80.66;102706.25;5049642;28;45885;-70
2022/01/16 07:22:21;;;;;;;;;25.25;23.00;;;;;2.32;81.11;102703.56;5054140;28;45514;-70
2022/01/16 07:24:48;;;;;;;;;34.50;22.25;;;;;2.39;81.53;102712.34;5055477;28;46866;-70
2022/01/16 07:27:13;;;;;;;;;38.25;26.50;;;;;2.36;81.08;102699.31;5035714;28;45921;-70
2022/01/16 07:29:38;;;;;;;;;24.00;16.00;;;;;2.45;80.96;102722.88;5058060;28;45482;-70
2022/01/16 07:32:06;;;;;;;;;32.75;24.75;;;;;2.45;81.13;102724.59;5055905;28;45470;-70
2022/01/16 07:34:32;;;;;;;;;32.75;26.25;;;;;2.42;81.50;102706.38;5057627;28;45359;-70
2022/01/16 07:36:57;;;;;;;;;27.25;21.75;;;;;2.40;81.54;102706.31;5052322;28;45395;-70
2022/01/16 07:39:22;;;;;;;;;31.67;26.33;;;;;2.33;81.58;102697.53;5053319;28;45505;-70
2022/01/16 07:41:48;;;;;;;;;25.33;21.67;;;;;2.33;81.71;102712.22;5056651;28;45515;-70
2022/01/16 07:44:14;;;;;;;;;29.00;21.00;;;;;2.34;81.89;102720.03;5057298;28;45447;-70
2022/01/16 07:46:39;;;;;;;;;31.00;24.25;;;;;2.30;81.72;102712.16;5052909;28;45900;-70
2022/01/16 07:49:04;;;;;;;;;29.00;24.25;;;;;2.41;82.09;102728.84;5054356;28;45454;-70
2022/01/16 07:51:31;;;;;;;;;33.00;23.00;;;;;2.41;82.03;102733.16;5056334;28;45481;-70
2022/01/16 07:53:57;;;;;;;;;31.00;21.50;;;;;2.35;81.91;102721.81;5054154;28;47345;-70
2022/01/16 07:56:24;;;;;;;;;26.25;20.25;;;;;2.48;82.00;102737.66;5060937;28;45430;-70
2022/01/16 07:58:49;;;;;;;;;35.25;25.50;;;;;2.49;81.69;102721.22;5057246;28;45400;-70
2022/01/16 08:01:14;;;;;;;;;38.50;25.50;;;;;2.52;81.64;102714.38;5052293;28;45791;-70
2022/01/16 08:03:40;;;;;;;;;24.75;22.75;;;;;2.55;81.91;102717.03;5057189;28;45379;-70
2022/01/16 08:06:05;;;;;;;;;30.00;24.25;;;;;2.57;82.01;102704.13;5057536;28;45470;-70
2022/01/16 08:08:30;;;;;;;;;33.50;24.75;;;;;2.61;82.28;102711.13;5043933;28;45489;-70
2022/01/16 08:10:56;;;;;;;;;32.00;22.75;;;;;2.59;82.09;102713.66;5052402;28;45396;-70
2022/01/16 08:13:21;;;;;;;;;28.33;22.00;;;;;2.66;82.31;102724.19;5052946;28;65540;-70
2022/01/16 08:15:46;;;;;;;;;32.75;27.00;;;;;2.70;82.37;102728.59;5058130;28;45492;-70
2022/01/16 08:18:12;;;;;;;;;28.00;18.67;;;;;2.72;81.99;102734.72;5058787;28;47852;-71
2022/01/16 08:20:37;;;;;;;;;31.67;21.33;;;;;2.64;82.19;102716.38;5053030;28;50162;-71
2022/01/16 08:23:02;;;;;;;;;30.00;22.00;;;;;2.75;82.23;102732.16;5050624;28;46271;-72
2022/01/16 08:25:28;;;;;;;;;48.75;27.00;;;;;2.75;82.46;102733.03;5051834;28;46374;-70
2022/01/16 08:27:53;;;;;;;;;28.50;22.75;;;;;2.76;82.82;102727.00;5052156;28;45598;-72
2022/01/16 08:30:19;;;;;;;;;39.00;22.50;;;;;2.80;82.36;102739.22;5056578;28;45496;-71
2022/01/16 08:32:44;;;;;;;;;40.75;26.25;;;;;2.82;82.47;102742.75;5040947;28;46300;-71
2022/01/16 08:35:11;;;;;;;;;28.50;21.25;;;;;2.85;82.43;102742.78;5054269;28;45665;-71
2022/01/16 08:37:36;;;;;;;;;32.50;20.25;;;;;2.88;82.61;102729.88;5053169;28;45492;-72
2022/01/16 08:40:03;;;;;;;;;28.50;22.00;;;;;2.93;82.84;102726.50;5048415;28;45419;-71
2022/01/16 08:42:28;;;;;;;;;30.25;21.75;;;;;2.97;83.12;102729.16;5052854;28;47126;-71
2022/01/16 08:44:54;;;;;;;;;35.75;31.25;;;;;3.00;82.50;102718.84;5054170;28;49856;-71
2022/01/16 08:47:20;;;;;;;;;32.00;23.50;;;;;3.07;82.95;102732.84;5054588;28;45525;-71
2022/01/16 08:49:45;;;;;;;;;32.25;23.75;;;;;3.09;82.80;102742.41;5056510;28;45480;-71
2022/01/16 08:52:10;;;;;;;;;36.00;25.67;;;;;3.05;82.77;102732.81;5050572;28;46094;-71
2022/01/16 08:54:36;;;;;;;;;30.25;27.00;;;;;3.12;82.82;102746.78;5053104;28;45613;-71
2022/01/16 08:57:02;;;;;;;;;37.00;22.50;;;;;3.18;82.98;102752.09;5055449;28;45435;-70
2022/01/16 08:59:28;;;;;;;;;28.00;23.25;;;;;3.22;82.50;102747.84;5049539;28;45427;-70
2022/01/16 09:01:54;;;;;;;;;44.75;24.75;;;;;3.18;82.73;102728.72;5046143;28;46128;-70
2022/01/16 09:04:19;;;;;;;;;44.50;25.00;;;;;3.26;83.08;102741.88;5058715;28;45511;-69
2022/01/16 09:06:45;;;;;;;;;27.50;23.75;;;;;3.31;83.34;102755.84;5058959;28;45490;-70
2022/01/16 09:09:10;;;;;;;;;34.00;24.75;;;;;3.33;82.96;102757.59;5053275;28;45466;-69
2022/01/16 09:11:35;;;;;;;;;37.50;24.75;;;;;3.33;83.05;102752.41;5052887;28;46130;-71
2022/01/16 09:14:01;;;;;;;;;38.00;22.25;;;;;3.42;82.75;102748.25;5055998;28;45416;-72
2022/01/16 09:16:26;;;;;;;;;20.25;17.75;;;;;3.47;82.81;102762.19;5055269;28;45513;-70
2022/01/16 09:18:52;;;;;;;;;31.25;21.50;;;;;3.46;82.21;102774.31;5058274;28;45493;-73
2022/01/16 09:21:18;;;;;;;;;21.75;20.25;;;;;3.38;82.35;102776.75;5053207;28;46055;-72
2022/01/16 09:23:45;;;;;;;;;27.50;20.00;;;;;3.27;82.22;102773.06;5056333;28;45983;-71
2022/01/16 09:26:10;;;;;;;;;32.25;23.25;;;;;3.31;82.32;102784.41;5055804;28;45698;-71
2022/01/16 09:28:36;;;;;;;;;27.50;21.75;;;;;3.35;82.75;102784.50;5054421;28;45385;-71
2022/01/16 09:31:01;;;;;;;;;21.33;16.00;;;;;3.55;82.48;102786.59;5058843;28;52269;-71
2022/01/16 09:33:26;;;;;;;;;24.75;19.75;;;;;3.59;82.30;102784.09;5055236;28;45490;-71
2022/01/16 09:35:52;;;;;;;;;29.33;18.67;;;;;3.57;82.18;102777.13;5061756;28;48605;-71
2022/01/16 09:38:18;;;;;;;;;26.33;16.00;;;;;3.71;81.24;102786.06;5051673;28;45578;-72
2022/01/16 09:40:46;;;;;;;;;29.25;18.50;;;;;3.63;81.34;102772.91;5055618;27;46640;-72
2022/01/16 09:43:11;;;;;;;;;19.75;13.00;;;;;3.76;81.15;102802.63;5053108;28;45478;-71
2022/01/16 09:45:37;;;;;;;;;25.50;19.50;;;;;3.78;81.25;102802.66;5054181;28;48034;-71
2022/01/16 09:48:03;;;;;;;;;17.25;16.75;;;;;3.79;81.15;102805.25;5047494;28;45356;-72
2022/01/16 09:50:28;;;;;;;;;17.75;14.00;;;;;3.80;80.60;102793.13;5052829;28;46038;-72
2022/01/16 09:52:54;;;;;;;;;24.75;12.75;;;;;3.91;80.81;102783.78;5046653;28;45545;-72
2022/01/16 09:55:20;;;;;;;;;99.50;78.75;;;;;4.03;80.68;102767.53;5054648;28;45661;-71
2022/01/16 09:57:47;;;;;;;;;16.00;12.50;;;;;4.48;80.28;102784.72;5054646;28;45779;-72
2022/01/16 10:00:20;;;;;;;;;23.00;17.50;;;;;4.72;79.90;102787.69;5051418;28;46082;-72
2022/01/16 10:02:45;;;;;;;;;27.75;16.50;;;;;4.81;79.43;102789.56;5041155;28;45735;-73
2022/01/16 10:05:36;;;;;;;;;24.00;18.00;;;;;4.82;78.75;102801.72;5047069;28;45405;-71
2022/01/16 10:08:04;;;;;;;;;20.25;15.50;;;;;4.83;78.70;102804.34;5029450;28;45739;-71
2022/01/16 10:10:39;;;;;;;;;20.75;17.50;;;;;5.01;78.66;102805.44;5050071;28;46085;-71
2022/01/16 10:13:37;;;;;;;;;25.00;20.75;;;;;5.27;78.06;102796.19;5042531;28;45988;-70
2022/01/16 10:16:02;;;;;;;;;22.25;18.75;;;;;5.33;77.49;102791.09;5044028;28;45653;-71
2022/01/16 10:18:33;;;;;;;;;22.50;19.25;;;;;5.59;77.83;102798.31;5048782;28;45319;-70
2022/01/16 10:20:59;;;;;;;;;22.00;18.00;;;;;5.83;76.95;102784.63;5037658;28;47336;-71
2022/01/16 10:23:26;;;;;;;;;21.75;14.00;;;;;6.15;76.91;102787.56;5038492;28;45479;-71
2022/01/16 10:25:51;;;;;;;;;20.25;13.00;;;;;6.46;75.79;102797.38;5047997;28;45253;-72
2022/01/16 10:28:22;;;;;;;;;13.50;11.50;;;;;6.40;74.69;102786.88;5048882;28;45470;-72
2022/01/16 10:30:58;;;;;;;;;27.50;15.00;;;;;6.22;74.87;102797.22;5047505;28;45850;-71
2022/01/16 10:33:25;;;;;;;;;20.00;15.50;;;;;5.92;74.26;102790.84;5042488;28;45612;-71
2022/01/16 10:35:54;;;;;;;;;23.75;19.25;;;;;5.68;75.00;102801.00;5049795;28;45737;-71
2022/01/16 10:38:22;;;;;;;;;21.50;16.25;;;;;5.58;74.85;102801.78;5052657;28;45640;-72
2022/01/16 10:40:50;;;;;;;;;21.25;17.00;;;;;5.38;74.92;102801.56;5038773;28;45456;-71
2022/01/16 10:43:18;;;;;;;;;22.00;18.50;;;;;5.28;75.56;102791.88;5056849;28;45398;-71
2022/01/16 10:45:44;;;;;;;;;23.00;16.50;;;;;5.35;75.92;102797.19;5055697;28;45440;-72
2022/01/16 10:48:12;;;;;;;;;24.50;20.50;;;;;5.52;76.56;102799.09;5057990;28;45572;-70
2022/01/16 10:50:38;;;;;;;;;28.75;17.00;;;;;5.70;76.02;102796.69;5069252;28;47099;-73
2022/01/16 10:53:07;;;;;;;;;20.25;12.00;;;;;5.84;75.84;102800.28;5071769;28;45796;-72
2022/01/16 10:55:35;;;;;;;;;22.50;19.50;;;;;6.04;75.83;102797.91;5058193;28;45576;-71
2022/01/16 10:58:12;;;;;;;;;20.25;17.00;;;;;6.32;75.40;102790.28;5056171;28;45608;-72
2022/01/16 11:00:40;;;;;;;;;22.75;18.00;;;;;6.52;75.01;102791.31;5056293;27;46401;-72
2022/01/16 11:03:08;;;;;;;;;23.25;12.75;;;;;6.44;73.91;102790.41;5055842;28;45643;-72
2022/01/16 11:05:36;;;;;;;;;30.00;21.00;;;;;6.28;73.53;102794.66;5054775;28;45558;-71
2022/01/16 11:08:05;;;;;;;;;29.50;22.75;;;;;6.20;73.81;102791.09;5051478;28;45489;-71
2022/01/16 11:10:37;;;;;;;;;22.00;18.75;;;;;6.18;74.29;102796.31;5056271;28;47001;-72
2022/01/16 11:13:05;;;;;;;;;16.75;15.50;;;;;6.28;74.00;102786.81;5055887;28;45538;-72
2022/01/16 11:15:32;;;;;;;;;25.50;22.25;;;;;6.40;74.23;102786.88;5056977;28;45304;-72
2022/01/16 11:17:58;;;;;;;;;25.00;18.50;;;;;6.58;73.81;102782.66;5055454;28;45478;-72
2022/01/16 11:20:36;;;;;;;;;24.50;20.75;;;;;6.82;73.99;102795.00;5069147;28;45746;-72
2022/01/16 11:23:11;;;;;;;;;32.25;22.75;;;;;6.99;73.37;102788.97;5057265;28;46314;-72
2022/01/16 11:25:39;;;;;;;;;28.50;25.00;;;;;6.82;72.49;102789.75;5055206;28;45565;-72
2022/01/16 11:28:18;;;;;;;;;23.25;20.25;;;;;6.51;73.00;102793.06;5046971;28;45553;-72
2022/01/16 11:30:53;;;;;;;;;26.25;19.00;;;;;6.21;73.07;102787.59;5041455;28;46427;-72
2022/01/16 11:33:20;;;;;;;;;25.25;20.00;;;;;5.92;73.34;102788.25;5056831;28;45414;-73
2022/01/16 11:35:49;;;;;;;;;27.25;16.75;;;;;5.70;74.11;102776.69;5039401;28;45514;-72
2022/01/16 11:38:18;;;;;;;;;23.50;15.75;;;;;5.63;74.54;102779.22;5065111;28;45353;-72
2022/01/16 11:40:48;;;;;;;;;20.25;15.75;;;;;5.48;74.56;102774.72;5059843;28;46209;-72
2022/01/16 11:43:25;;;;;;;;;23.75;19.75;;;;;5.47;74.74;102788.63;5051622;28;45372;-73
2022/01/16 11:46:05;;;;;;;;;29.75;19.75;;;;;5.50;75.69;102791.25;5049650;28;45826;-71
2022/01/16 11:49:00;;;;;;;;;19.00;19.00;;;;;5.57;75.57;102794.81;5047934;28;45605;-72
2022/01/16 11:51:35;;;;;;;;;29.50;20.50;;;;;5.67;75.26;102775.78;5044378;28;47176;-71
2022/01/16 11:54:27;;;;;;;;;19.50;17.00;;;;;5.70;75.46;102779.31;5046535;28;46493;-72